Time;durP1;ratioP1;P1;durP2;ratioP2;P2;SDS_P1;SDS_P2;PMS_P1;PMS_P2;Temp;Humidity;BMP_temperature;BMP_pressure;BME280_temperature;BME280_humidity;BME280_pressure;Samples;Min_cycle;Max_cycle;Signal;HPM_P1;HPM_P2
2021/03/31 00:00:54;;;;;;;6.20;0.75;;;;;;;5.76;55.77;99919.84;4996743;28;20069;-75
2021/03/31 00:03:21;;;;;;;1.02;0.95;;;;;;;5.89;56.28;99937.66;4995747;28;20473;-74
2021/03/31 00:05:46;;;;;;;0.93;0.93;;;;;;;6.02;58.21;99929.94;4995477;28;20041;-74
2021/03/31 00:08:12;;;;;;;0.75;0.75;;;;;;;5.70;58.26;99875.50;5034683;28;20056;-73
2021/03/31 00:10:38;;;;;;;1.13;1.13;;;;;;;6.09;57.76;99933.53;5036938;28;20029;-74
2021/03/31 00:13:04;;;;;;;0.55;0.55;;;;;;;5.78;57.84;99872.84;5036200;28;20492;-73
2021/03/31 00:15:30;;;;;;;0.43;0.43;;;;;;;5.55;57.53;99854.56;5035935;28;20181;-76
2021/03/31 00:17:56;;;;;;;0.50;0.50;;;;;;;5.76;58.07;99891.63;5036379;28;20082;-74
2021/03/31 00:20:21;;;;;;;0.30;0.30;;;;;;;5.94;58.05;99923.59;5036042;28;20025;-74
2021/03/31 00:22:47;;;;;;;0.60;0.60;;;;;;;5.65;58.94;99878.59;5036025;28;20036;-74
2021/03/31 00:25:13;;;;;;;1.85;0.77;;;;;;;5.25;60.78;99848.31;5036158;28;20025;-74
2021/03/31 00:27:40;;;;;;;0.50;0.50;;;;;;;5.48;64.50;99895.63;5035995;28;20115;-75
2021/03/31 00:30:08;;;;;;;1.45;1.38;;;;;;;5.10;67.52;99876.72;5038335;28;20033;-77
2021/03/31 00:32:33;;;;;;;1.85;1.75;;;;;;;5.34;68.05;99909.13;5038027;28;20400;-78
2021/03/31 00:34:59;;;;;;;0.30;0.30;;;;;;;5.01;67.31;99887.13;5036234;28;20025;-78
2021/03/31 00:37:25;;;;;;;0.57;0.57;;;;;;;4.89;66.91;99850.59;5019872;28;20032;-76
2021/03/31 00:39:50;;;;;;;0.88;0.88;;;;;;;4.99;66.55;99856.63;5036789;28;20048;-79
2021/03/31 00:42:16;;;;;;;1.48;1.40;;;;;;;5.01;65.90;99849.59;5036737;28;20029;-76
2021/03/31 00:44:41;;;;;;;0.22;0.22;;;;;;;5.41;65.96;99894.72;5035568;28;20027;-76
2021/03/31 00:47:07;;;;;;;1.10;0.95;;;;;;;5.03;65.75;99854.69;5034957;28;20039;-76
2021/03/31 00:49:32;;;;;;;0.30;0.30;;;;;;;5.17;65.84;99869.38;5036193;28;20075;-75
2021/03/31 00:51:58;;;;;;;0.65;0.65;;;;;;;4.87;66.42;99857.63;5036788;28;20025;-79
2021/03/31 00:54:24;;;;;;;0.40;0.40;;;;;;;4.95;66.35;99881.19;5036834;28;20527;-75
2021/03/31 00:56:50;;;;;;;0.30;0.30;;;;;;;4.66;65.13;99843.63;5037217;28;20033;-76
2021/03/31 00:59:15;;;;;;;0.60;0.60;;;;;;;5.02;62.99;99895.00;5038141;28;20029;-80
2021/03/31 01:05:20;;;;;;;0.95;0.95;;;;;;;4.39;64.58;99820.94;4986863;28;20126;-79
2021/03/31 01:07:47;;;;;;;0.68;0.68;;;;;;;4.53;65.06;99834.81;5016326;28;20072;-77
2021/03/31 01:10:14;;;;;;;0.47;0.47;;;;;;;4.50;65.80;99843.78;5035281;28;20040;-75
2021/03/31 01:13:16;;;;;;;0.70;0.70;;;;;;;4.80;65.68;99866.53;5035571;28;20036;-75
2021/03/31 01:16:07;;;;;;;0.65;0.65;;;;;;;4.86;66.77;99905.31;5035776;28;20029;-74
2021/03/31 01:18:55;;;;;;;0.45;0.45;;;;;;;4.94;61.71;99909.75;5017846;28;20037;-74
2021/03/31 01:25:02;;;;;;;0.82;0.82;;;;;;;4.85;62.60;99906.47;5053611;28;20056;-75
2021/03/31 01:31:11;;;;;;;0.95;0.90;;;;;;;4.42;62.84;99851.09;5057148;28;20047;-80
2021/03/31 01:33:37;;;;;;;0.77;0.73;;;;;;;4.78;64.03;99928.28;5035413;28;20091;-75
2021/03/31 01:36:03;;;;;;;0.77;0.77;;;;;;;4.47;65.56;99923.84;5035533;28;20028;-86
2021/03/31 01:38:30;;;;;;;0.30;0.30;;;;;;;3.66;67.25;99814.66;5059244;28;20025;-85
2021/03/31 01:41:01;;;;;;;2.47;1.40;;;;;;;3.95;67.67;99903.41;5054102;28;20040;-87
2021/03/31 01:43:45;;;;;;;0.38;0.38;;;;;;;4.09;69.29;99920.09;5052876;28;20473;-85
2021/03/31 01:49:34;;;;;;;0.20;0.20;;;;;;;3.96;68.54;99866.72;5046906;28;20063;-77
2021/03/31 01:52:06;;;;;;;0.50;0.50;;;;;;;4.16;66.55;99894.78;5045219;28;20047;-85
2021/03/31 01:54:34;;;;;;;1.15;1.15;;;;;;;3.97;66.93;99870.25;5062610;28;20056;-87
2021/03/31 02:00:22;;;;;;;0.30;0.30;;;;;;;4.66;65.77;99915.56;5058002;28;20591;-76
2021/03/31 02:02:52;;;;;;;0.30;0.30;;;;;;;4.57;63.69;99901.38;5038901;28;20043;-75
2021/03/31 02:05:19;;;;;;;2.65;1.10;;;;;;;4.47;63.27;99850.75;5038963;28;20028;-76
2021/03/31 02:07:46;;;;;;;0.20;0.20;;;;;;;4.51;62.84;99853.56;5039355;28;20086;-75
2021/03/31 02:10:16;;;;;;;0.40;0.40;;;;;;;4.69;62.55;99856.59;5039122;28;20064;-77
2021/03/31 02:12:43;;;;;;;0.30;0.30;;;;;;;4.53;62.25;99828.56;5038588;28;20033;-75
2021/03/31 02:15:13;;;;;;;2.72;1.10;;;;;;;5.06;63.57;99909.53;5038949;28;20021;-75
2021/03/31 02:17:39;;;;;;;0.30;0.30;;;;;;;4.71;63.86;99846.81;5038465;28;20036;-74
2021/03/31 02:20:06;;;;;;;0.38;0.38;;;;;;;4.78;63.48;99855.16;5038370;28;20044;-76
2021/03/31 02:22:34;;;;;;;1.23;1.13;;;;;;;4.94;64.58;99881.59;5038636;28;20412;-75
2021/03/31 02:25:01;;;;;;;2.78;2.58;;;;;;;4.99;65.02;99892.22;5038751;28;20477;-76
2021/03/31 02:27:26;;;;;;;0.52;0.52;;;;;;;4.65;65.46;99852.97;5038654;28;20045;-76
2021/03/31 02:29:52;;;;;;;1.33;1.30;;;;;;;4.71;66.11;99865.19;5038353;28;20124;-75
2021/03/31 02:32:22;;;;;;;0.30;0.30;;;;;;;4.78;67.79;99912.63;5038174;28;20033;-75
2021/03/31 02:34:52;;;;;;;0.80;0.80;;;;;;;4.36;69.03;99852.56;5038721;28;20031;-78
2021/03/31 02:37:19;;;;;;;0.57;0.57;;;;;;;4.44;70.21;99848.00;5038403;28;20040;-76
2021/03/31 02:39:47;;;;;;;1.08;1.00;;;;;;;4.30;68.38;99836.81;5037878;28;20069;-74
2021/03/31 02:42:16;;;;;;;0.57;0.55;;;;;;;4.40;68.63;99867.06;5037991;28;20033;-74
2021/03/31 02:44:45;;;;;;;0.80;0.80;;;;;;;4.32;69.04;99851.72;5037988;28;20029;-75
2021/03/31 02:47:15;;;;;;;0.30;0.30;;;;;;;4.77;68.81;99894.63;5037671;28;20467;-74
2021/03/31 02:49:46;;;;;;;1.38;1.30;;;;;;;4.59;70.47;99892.78;5037593;28;20080;-74
2021/03/31 02:52:13;;;;;;;0.82;0.82;;;;;;;4.46;71.67;99895.69;5037756;28;20029;-74
2021/03/31 02:54:41;;;;;;;0.65;0.65;;;;;;;4.29;71.14;99848.91;5037707;28;20113;-74
2021/03/31 02:57:10;;;;;;;0.22;0.22;;;;;;;4.59;70.97;99903.72;5037647;28;20033;-75
2021/03/31 02:59:39;;;;;;;1.33;0.85;;;;;;;4.59;70.99;99879.09;5037461;28;20095;-75
2021/03/31 03:02:05;;;;;;;0.20;0.20;;;;;;;4.45;72.03;99836.69;5038123;28;20021;-75
2021/03/31 03:04:31;;;;;;;0.90;0.88;;;;;;;4.53;71.55;99844.97;5037477;28;20041;-75
2021/03/31 03:06:57;;;;;;;0.30;0.30;;;;;;;4.44;72.48;99835.09;5037926;28;20025;-75
2021/03/31 03:09:23;;;;;;;0.20;0.20;;;;;;;4.86;73.06;99903.38;5041219;28;20033;-76
2021/03/31 03:11:51;;;;;;;1.02;1.02;;;;;;;4.68;74.29;99885.91;5039454;28;20028;-75
2021/03/31 03:14:18;;;;;;;0.30;0.30;;;;;;;4.30;72.95;99825.88;5037427;28;20458;-75
2021/03/31 03:16:44;;;;;;;0.20;0.20;;;;;;;4.60;71.71;99848.63;5037174;28;20029;-75
2021/03/31 03:19:10;;;;;;;0.55;0.55;;;;;;;4.81;70.96;99883.75;5037571;28;20121;-75
2021/03/31 03:21:37;;;;;;;0.63;0.63;;;;;;;4.57;70.16;99846.63;5037136;28;20084;-74
2021/03/31 03:24:03;;;;;;;0.30;0.30;;;;;;;4.76;69.62;99867.63;5037161;28;20501;-74
2021/03/31 03:26:29;;;;;;;0.50;0.50;;;;;;;4.73;68.00;99866.41;5037410;28;20528;-74
2021/03/31 03:28:56;;;;;;;2.60;2.45;;;;;;;4.99;66.68;99894.94;5036886;28;20036;-76
2021/03/31 03:31:22;;;;;;;0.38;0.38;;;;;;;5.26;64.88;99896.50;5036870;28;20116;-75
2021/03/31 03:33:48;;;;;;;9.95;2.47;;;;;;;5.22;65.45;99909.38;5037148;28;20060;-74
2021/03/31 03:36:15;;;;;;;0.85;0.85;;;;;;;5.05;64.95;99893.47;5037356;28;20029;-75
2021/03/31 03:38:42;;;;;;;0.60;0.60;;;;;;;5.09;63.97;99861.44;5036620;28;20035;-76
2021/03/31 03:41:12;;;;;;;0.67;0.67;;;;;;;5.20;64.64;99890.53;5036998;28;20024;-76
2021/03/31 03:43:40;;;;;;;0.55;0.55;;;;;;;5.40;65.11;99921.34;5037197;28;20033;-75
2021/03/31 03:46:07;;;;;;;0.47;0.47;;;;;;;5.20;67.24;99881.53;5036515;28;20032;-75
2021/03/31 03:48:33;;;;;;;2.80;1.00;;;;;;;5.05;66.29;99858.66;5036347;28;20025;-75
2021/03/31 03:50:59;;;;;;;0.60;0.60;;;;;;;5.26;64.99;99897.28;5036641;28;20040;-75
2021/03/31 03:53:28;;;;;;;1.27;1.23;;;;;;;5.13;65.25;99851.31;5036736;28;20028;-74
2021/03/31 03:55:55;;;;;;;0.55;0.55;;;;;;;4.90;64.67;99815.78;5037073;28;20052;-74
2021/03/31 03:58:24;;;;;;;0.52;0.52;;;;;;;5.19;66.59;99877.22;5036603;28;20116;-75
2021/03/31 04:00:49;;;;;;;0.50;0.50;;;;;;;5.31;68.02;99915.34;5036569;28;20527;-75
2021/03/31 04:03:41;;;;;;;1.10;1.10;;;;;;;4.73;67.71;99839.03;5046429;28;20013;-89
2021/03/31 04:06:08;;;;;;;0.85;0.85;;;;;;;5.10;68.27;99898.63;5049474;28;20119;-80
2021/03/31 04:08:34;;;;;;;0.57;0.57;;;;;;;4.94;70.22;99907.03;5039289;28;20025;-77
2021/03/31 04:11:01;;;;;;;0.32;0.32;;;;;;;5.06;69.46;99914.22;5036642;28;20060;-81
2021/03/31 04:13:30;;;;;;;0.90;0.90;;;;;;;5.13;69.00;99909.63;5038134;28;20036;-80
2021/03/31 04:16:04;;;;;;;;;;;;;;;5.21;68.96;99924.22;5038189;28;20020;-80
2021/03/31 04:18:32;;;;;;;0.47;0.47;;;;;;;4.75;69.01;99869.59;5037226;28;19939;-75
2021/03/31 04:21:00;;;;;;;0.73;0.73;;;;;;;4.55;69.11;99835.25;5036463;28;20029;-74
2021/03/31 04:23:26;;;;;;;0.30;0.30;;;;;;;4.69;69.36;99870.28;5035438;28;20033;-74
2021/03/31 04:25:54;;;;;;;0.47;0.47;;;;;;;4.76;66.99;99857.44;5036200;28;20053;-79
2021/03/31 04:28:21;;;;;;;0.30;0.30;;;;;;;5.15;67.32;99922.97;5036155;28;20033;-74
2021/03/31 04:30:47;;;;;;;0.38;0.38;;;;;;;4.78;67.64;99874.31;5036421;28;20033;-75
2021/03/31 04:33:14;;;;;;;0.85;0.85;;;;;;;4.79;69.32;99864.16;5035832;28;20124;-75
2021/03/31 04:35:40;;;;;;;0.20;0.20;;;;;;;5.24;69.55;99927.00;5036348;28;20345;-75
2021/03/31 04:38:08;;;;;;;0.30;0.30;;;;;;;5.16;69.47;99910.84;5036084;28;20029;-74
2021/03/31 04:40:51;;;;;;;0.95;0.95;;;;;;;5.35;69.70;99907.97;5035994;28;20059;-75
2021/03/31 04:43:19;;;;;;;0.70;0.70;;;;;;;5.46;68.60;99902.63;5035412;28;20035;-76
2021/03/31 04:45:44;;;;;;;1.98;1.88;;;;;;;5.86;67.13;99912.88;5035452;28;20032;-75
2021/03/31 04:48:10;;;;;;;1.45;1.40;;;;;;;5.74;66.36;99881.81;5035480;28;20032;-74
2021/03/31 04:50:35;;;;;;;0.32;0.32;;;;;;;6.24;64.78;99925.47;5035722;28;20148;-75
2021/03/31 04:53:01;;;;;;;0.30;0.30;;;;;;;6.56;63.09;99921.06;5036265;28;20407;-75
2021/03/31 04:55:27;;;;;;;0.55;0.55;;;;;;;7.13;62.95;99903.00;5035402;28;20025;-75
2021/03/31 04:57:52;;;;;;;1.27;1.20;;;;;;;7.63;61.01;99875.75;5035472;28;20453;-75
2021/03/31 05:00:18;;;;;;;0.30;0.30;;;;;;;7.59;59.91;99895.00;5035683;28;20048;-74
2021/03/31 05:02:43;;;;;;;0.77;0.77;;;;;;;8.82;56.20;99906.59;5035159;28;20032;-75
2021/03/31 05:05:09;;;;;;;0.90;0.90;;;;;;;9.38;54.23;99898.22;5035261;28;20400;-75
2021/03/31 05:07:35;;;;;;;0.57;0.57;;;;;;;10.24;52.82;99950.31;5035745;28;20025;-76
2021/03/31 05:10:00;;;;;;;0.50;0.50;;;;;;;10.72;52.03;99931.81;5034946;28;20500;-75
2021/03/31 05:12:26;;;;;;;0.98;0.70;;;;;;;10.39;50.53;99888.25;5035013;28;20021;-74
2021/03/31 05:14:51;;;;;;;2.60;2.35;;;;;;;10.72;50.31;99895.09;5035119;28;20486;-77
2021/03/31 05:17:17;;;;;;;1.20;0.82;;;;;;;11.05;48.17;99896.34;5034939;28;20128;-75
2021/03/31 05:19:42;;;;;;;0.85;0.85;;;;;;;11.06;48.18;99907.00;5034331;28;20466;-73
2021/03/31 05:22:10;;;;;;;2.60;1.35;;;;;;;11.59;48.77;99941.63;5035044;28;20029;-75
2021/03/31 05:24:35;;;;;;;0.38;0.38;;;;;;;12.59;45.91;99928.81;5035204;28;20587;-74
2021/03/31 05:27:02;;;;;;;0.75;0.75;;;;;;;13.51;42.97;99887.53;5034907;28;20060;-74
2021/03/31 05:29:27;;;;;;;0.57;0.57;;;;;;;14.78;39.62;99936.75;5034892;28;20029;-75
2021/03/31 05:31:52;;;;;;;0.93;0.93;;;;;;;14.77;39.39;99931.66;5034475;28;20120;-74
2021/03/31 05:34:18;;;;;;;3.00;0.73;;;;;;;15.29;38.27;99904.44;5036546;28;20029;-74
2021/03/31 05:36:43;;;;;;;0.47;0.47;;;;;;;15.48;37.78;99939.72;5038703;28;20052;-76
2021/03/31 05:39:09;;;;;;;4.07;1.20;;;;;;;14.90;38.01;99938.06;5038570;28;20031;-73
2021/03/31 05:41:35;;;;;;;0.65;0.65;;;;;;;15.88;36.43;99945.78;5038535;28;20087;-73
2021/03/31 05:44:02;;;;;;;0.88;0.88;;;;;;;17.19;34.43;99928.91;5038215;28;20040;-74
2021/03/31 05:46:28;;;;;;;0.30;0.30;;;;;;;18.21;31.92;99925.16;5038262;28;20017;-74
2021/03/31 05:48:54;;;;;;;0.88;0.88;;;;;;;17.24;32.07;99919.97;5035065;28;20083;-73
2021/03/31 05:51:20;;;;;;;0.73;0.73;;;;;;;15.87;33.17;99937.84;5035074;28;20109;-75
2021/03/31 05:53:45;;;;;;;1.77;1.58;;;;;;;16.36;34.11;99912.47;5034761;28;20030;-76
2021/03/31 05:56:11;;;;;;;0.90;0.80;;;;;;;17.32;32.14;99882.94;5035723;28;20025;-76
2021/03/31 05:58:37;;;;;;;1.50;0.82;;;;;;;18.74;30.04;99904.72;5036016;28;20067;-78
2021/03/31 06:01:04;;;;;;;0.60;0.60;;;;;;;19.00;28.98;99903.22;5035264;28;20025;-76
2021/03/31 06:03:31;;;;;;;1.50;1.15;;;;;;;19.95;27.97;99928.31;5035127;28;20064;-76
2021/03/31 06:06:00;;;;;;;1.10;1.10;;;;;;;19.78;28.45;99916.63;5034762;28;20048;-76
2021/03/31 06:08:25;;;;;;;;;;;;;;;19.91;28.29;99928.44;5035917;28;20041;-76
2021/03/31 06:10:58;;;;;;;0.80;0.80;;;;;;;19.97;28.02;99887.28;5034853;28;20365;-77
2021/03/31 06:13:23;;;;;;;3.78;1.45;;;;;;;18.93;29.63;99887.47;5034941;28;20036;-77
2021/03/31 06:15:49;;;;;;;0.60;0.60;;;;;;;19.70;28.00;99909.78;5034528;28;20030;-76
2021/03/31 06:18:16;;;;;;;1.40;1.08;;;;;;;20.22;27.89;99906.53;5034714;28;20577;-77
2021/03/31 06:21:02;;;;;;;0.60;0.60;;;;;;;19.38;28.05;99895.16;5034480;28;20025;-77
2021/03/31 06:23:39;;;;;;;0.73;0.65;;;;;;;20.36;26.49;99895.94;5034577;28;20033;-73
2021/03/31 06:26:32;;;;;;;0.73;0.73;;;;;;;20.14;25.85;99902.50;5033510;28;20021;-75
2021/03/31 06:29:01;;;;;;;1.92;1.83;;;;;;;19.55;27.06;99878.03;5034586;28;20075;-74
2021/03/31 06:31:32;;;;;;;1.75;1.65;;;;;;;19.89;26.54;99928.16;5033975;28;20028;-73
2021/03/31 06:34:32;;;;;;;3.25;2.63;;;;;;;19.06;28.25;99884.53;5032884;28;20094;-73
2021/03/31 06:37:04;;;;;;;14.00;1.88;;;;;;;16.33;30.88;99910.59;5055398;28;20037;-72
2021/03/31 06:39:32;;;;;;;0.70;0.70;;;;;;;16.41;32.62;99884.03;5037003;28;20063;-73
2021/03/31 06:42:02;;;;;;;2.63;1.17;;;;;;;16.19;33.35;99890.28;5035110;28;20036;-72
2021/03/31 06:47:30;;;;;;;1.35;1.25;;;;;;;16.43;32.07;99878.78;5052594;28;20071;-76
2021/03/31 06:49:57;;;;;;;1.58;1.48;;;;;;;15.40;34.41;99893.78;5052565;28;20098;-74
2021/03/31 06:52:23;;;;;;;2.45;1.75;;;;;;;16.92;32.60;99854.06;5034948;28;20499;-75
2021/03/31 06:55:00;;;;;;;1.23;1.13;;;;;;;17.37;31.99;99918.69;5035315;28;20033;-74
2021/03/31 06:57:34;;;;;;;3.50;0.90;;;;;;;17.47;31.35;99900.78;5038288;28;20029;-74
2021/03/31 07:00:11;;;;;;;1.27;1.27;;;;;;;17.84;31.04;99917.81;5037901;28;20025;-75
2021/03/31 07:02:39;;;;;;;1.23;1.17;;;;;;;16.87;32.49;99908.47;5037513;28;20402;-75
2021/03/31 07:05:07;;;;;;;1.25;1.00;;;;;;;16.74;31.89;99916.06;5037372;28;20040;-74
2021/03/31 07:07:35;;;;;;;1.05;1.05;;;;;;;16.28;31.42;99897.97;5037365;28;20090;-75
2021/03/31 07:10:03;;;;;;;;;;;;;;;14.89;35.50;99911.47;5037575;28;20041;-74
2021/03/31 07:12:35;;;;;;;;;;;;;;;14.34;36.85;99910.38;5037998;28;19913;-76
2021/03/31 07:15:01;;;;;;;1.15;1.05;;;;;;;13.10;37.83;99901.78;5038096;28;19916;-75
2021/03/31 07:17:27;;;;;;;1.23;1.23;;;;;;;13.30;37.33;99907.41;5037470;28;20171;-75
2021/03/31 07:19:53;;;;;;;8.35;2.75;;;;;;;14.41;35.88;99876.84;5054817;28;20139;-75
2021/03/31 07:22:19;;;;;;;1.02;0.95;;;;;;;13.76;36.10;99903.72;5037525;28;20068;-76
2021/03/31 07:24:45;;;;;;;1.70;1.60;;;;;;;13.71;36.32;99898.66;5037251;28;20029;-75
2021/03/31 07:27:15;;;;;;;2.60;1.48;;;;;;;14.24;33.83;99872.47;5037107;28;20063;-77
2021/03/31 07:32:30;;;;;;;1.48;1.38;;;;;;;16.10;32.56;99865.06;5054914;28;20035;-76
2021/03/31 07:34:58;;;;;;;1.63;1.52;;;;;;;16.21;31.64;99896.19;5037371;28;20139;-77
2021/03/31 07:37:24;;;;;;;1.67;1.57;;;;;;;15.85;34.04;99907.63;5037179;28;20029;-76
2021/03/31 07:39:51;;;;;;;1.35;0.63;;;;;;;14.58;35.20;99883.22;5036873;28;20260;-76
2021/03/31 07:42:17;;;;;;;0.60;0.60;;;;;;;13.63;37.77;99886.91;5036599;28;20033;-77
2021/03/31 07:44:43;;;;;;;2.78;2.05;;;;;;;13.03;38.36;99865.84;5036682;28;20028;-77
2021/03/31 07:47:09;;;;;;;3.97;1.52;;;;;;;13.04;36.89;99884.06;5036588;28;20416;-77
2021/03/31 07:49:35;;;;;;;3.95;1.83;;;;;;;12.46;38.03;99864.09;5036272;28;20053;-78
2021/03/31 07:52:03;;;;;;;0.80;0.80;;;;;;;11.71;39.47;99825.59;5036526;28;20385;-77
2021/03/31 07:54:29;;;;;;;;;;;;;;;12.24;39.38;99904.41;5036806;28;20035;-77
2021/03/31 07:56:58;;;;;;;2.35;2.17;;;;;;;12.31;39.03;99850.84;5036301;28;19913;-77
2021/03/31 07:59:23;;;;;;;1.40;1.02;;;;;;;12.62;39.71;99902.22;5036419;28;20078;-77
2021/03/31 08:01:54;;;;;;;0.70;0.70;;;;;;;12.82;39.00;99874.56;5036180;28;20037;-79
2021/03/31 08:04:25;;;;;;;1.08;1.08;;;;;;;12.11;38.17;99846.03;5036432;28;20504;-76
2021/03/31 08:06:56;;;;;;;0.82;0.82;;;;;;;11.90;38.51;99890.63;5036477;28;20151;-78
2021/03/31 08:09:28;;;;;;;1.73;1.63;;;;;;;12.37;41.05;99843.63;5036103;28;20028;-77
2021/03/31 08:11:56;;;;;;;2.15;1.98;;;;;;;13.18;37.27;99846.97;5036168;28;20028;-77
2021/03/31 08:14:27;;;;;;;;;;;;;;;13.35;36.95;99879.16;5036378;28;20028;-77
2021/03/31 08:16:56;;;;;;;1.15;1.15;;;;;;;12.68;37.56;99831.22;5035882;28;19920;-77
2021/03/31 08:19:30;;;;;;;0.57;0.57;;;;;;;12.48;38.30;99833.16;5035853;28;20037;-75
2021/03/31 08:21:57;;;;;;;1.25;1.10;;;;;;;12.17;38.04;99877.59;5035955;28;20029;-82
2021/03/31 08:24:41;;;;;;;2.08;1.65;;;;;;;12.08;40.50;99829.44;5037023;28;20033;-80
2021/03/31 08:27:06;;;;;;;1.63;1.52;;;;;;;13.04;40.30;99862.66;5036239;28;20049;-78
2021/03/31 08:29:32;;;;;;;1.38;1.30;;;;;;;13.40;38.15;99860.00;5035769;28;20090;-78
2021/03/31 08:32:00;;;;;;;3.15;2.55;;;;;;;13.69;40.59;99870.53;5035792;28;20082;-78
2021/03/31 08:34:27;;;;;;;0.70;0.70;;;;;;;13.97;40.32;99850.47;5036378;28;20392;-76
2021/03/31 08:36:53;;;;;;;2.40;1.92;;;;;;;14.33;38.77;99860.75;5035878;28;20024;-78
2021/03/31 08:39:19;;;;;;;0.77;0.77;;;;;;;14.51;37.21;99859.16;5035731;28;20124;-79
2021/03/31 08:41:47;;;;;;;1.40;1.30;;;;;;;14.34;36.54;99813.06;5035599;28;20120;-78
2021/03/31 08:44:18;;;;;;;1.23;0.98;;;;;;;14.86;36.61;99848.31;5035948;28;20123;-79
2021/03/31 08:46:44;;;;;;;3.15;1.27;;;;;;;13.70;36.77;99842.31;5035601;28;20041;-78
2021/03/31 08:49:26;;;;;;;1.45;1.00;;;;;;;13.57;36.08;99841.41;5035491;28;20098;-76
2021/03/31 08:51:55;;;;;;;1.40;1.38;;;;;;;13.13;36.34;99769.78;5035695;28;20029;-77
2021/03/31 08:54:44;;;;;;;1.30;1.30;;;;;;;13.58;36.58;99831.09;5035395;28;20128;-76
2021/03/31 08:57:16;;;;;;;0.75;0.75;;;;;;;13.59;35.65;99819.56;5035630;28;20180;-75
2021/03/31 08:59:44;;;;;;;1.17;1.17;;;;;;;13.14;36.49;99844.25;5035714;28;20094;-75
2021/03/31 09:02:11;;;;;;;3.10;1.80;;;;;;;13.04;37.40;99811.94;5035278;28;20025;-76
2021/03/31 09:04:36;;;;;;;1.48;0.77;;;;;;;13.28;38.17;99821.00;5035372;28;20025;-75
2021/03/31 09:07:10;;;;;;;3.05;1.77;;;;;;;13.54;41.36;99822.06;5035527;28;20052;-75
2021/03/31 09:09:38;;;;;;;0.95;0.95;;;;;;;12.70;36.15;99770.59;5036133;28;20037;-75
2021/03/31 09:12:07;;;;;;;0.98;0.98;;;;;;;13.08;36.47;99767.50;5036006;28;20036;-74
2021/03/31 09:14:33;;;;;;;;;;;;;;;13.18;37.75;99822.00;5036327;28;20082;-75
2021/03/31 09:17:01;;;;;;;1.45;1.33;;;;;;;13.14;37.80;99799.09;5035364;28;19916;-75
2021/03/31 09:19:32;;;;;;;0.65;0.65;;;;;;;13.36;38.00;99817.66;5035117;28;20520;-75
2021/03/31 09:22:05;;;;;;;1.45;1.00;;;;;;;13.26;39.24;99779.03;5035456;28;20124;-76
2021/03/31 09:24:31;;;;;;;1.40;1.30;;;;;;;13.48;39.00;99769.03;5035475;28;20472;-77
2021/03/31 09:26:57;;;;;;;2.40;1.52;;;;;;;13.73;37.45;99774.81;5035517;28;20032;-78
2021/03/31 09:29:25;;;;;;;1.33;1.30;;;;;;;13.87;40.22;99751.47;5035792;28;20447;-78
2021/03/31 09:31:51;;;;;;;1.02;1.02;;;;;;;13.88;35.92;99802.25;5035106;28;20060;-76
2021/03/31 09:34:17;;;;;;;1.20;1.10;;;;;;;13.34;37.37;99709.06;5035094;28;20032;-77
2021/03/31 09:36:55;;;;;;;1.80;1.70;;;;;;;13.33;37.31;99764.97;5035154;28;20028;-77
2021/03/31 09:39:20;;;;;;;0.88;0.88;;;;;;;13.26;38.57;99763.13;5035072;28;20029;-77
2021/03/31 09:41:46;;;;;;;3.13;1.80;;;;;;;13.03;37.88;99777.06;5035110;28;20090;-76
2021/03/31 09:44:12;;;;;;;0.98;0.98;;;;;;;12.85;39.88;99732.25;5035059;28;20037;-76
2021/03/31 09:46:38;;;;;;;2.13;2.03;;;;;;;13.47;39.47;99769.44;5034943;28;20040;-76
2021/03/31 09:50:49;;;;;;;1.60;0.85;;;;;;;13.12;36.57;99746.00;5123404;27;910754;-78
2021/03/31 09:53:15;;;;;;;21.60;1.42;;;;;;;13.21;37.04;99757.31;5130506;28;20062;-80
2021/03/31 09:55:41;;;;;;;3.35;2.50;;;;;;;13.32;37.95;99752.34;5128084;28;20024;-78
2021/03/31 09:58:07;;;;;;;1.75;1.65;;;;;;;13.16;36.66;99703.09;5129771;28;20053;-77
2021/03/31 10:00:37;;;;;;;0.85;0.85;;;;;;;13.59;36.86;99746.56;5130076;28;20042;-76
2021/03/31 10:03:05;;;;;;;1.88;1.55;;;;;;;13.76;36.90;99743.38;5130394;28;20475;-77
2021/03/31 10:05:31;;;;;;;3.00;1.83;;;;;;;13.42;36.07;99720.78;5130308;28;20024;-79
2021/03/31 10:08:10;;;;;;;1.00;1.00;;;;;;;13.39;36.28;99739.06;5130110;28;20120;-76
2021/03/31 10:10:44;;;;;;;0.70;0.70;;;;;;;12.84;37.83;99666.94;5131570;28;20422;-77
2021/03/31 10:13:13;;;;;;;0.73;0.73;;;;;;;13.57;37.56;99751.78;5134354;28;20023;-77
2021/03/31 10:15:42;;;;;;;0.80;0.80;;;;;;;13.38;37.36;99715.28;5130021;28;20035;-78
2021/03/31 10:18:09;;;;;;;5.40;2.55;;;;;;;13.53;37.18;99735.19;5130137;28;20030;-78
2021/03/31 10:20:42;;;;;;;2.28;1.58;;;;;;;13.56;37.83;99726.03;5130082;28;20048;-77
2021/03/31 10:23:21;;;;;;;1.85;1.75;;;;;;;13.59;40.03;99732.69;5129678;28;20023;-77
2021/03/31 10:25:47;;;;;;;4.57;1.92;;;;;;;13.76;37.21;99712.06;5129963;28;20027;-76
2021/03/31 10:28:32;;;;;;;1.52;1.45;;;;;;;13.32;37.02;99716.25;5130035;28;20034;-78
2021/03/31 10:31:20;;;;;;;1.70;1.63;;;;;;;13.14;36.62;99680.53;5129952;28;20544;-76
2021/03/31 10:33:47;;;;;;;1.50;1.40;;;;;;;13.37;36.56;99712.97;5126282;28;20495;-78
2021/03/31 10:36:38;;;;;;;0.75;0.75;;;;;;;13.38;38.15;99693.09;5109023;28;20092;-77
2021/03/31 10:50:06;;;;;;;1.60;1.50;;;;;;;13.17;38.64;99648.41;5110444;28;20498;-74
2021/03/31 10:52:36;;;;;;;3.15;1.05;;;;;;;13.36;37.53;99639.22;5109359;28;20073;-76
2021/03/31 10:55:02;;;;;;;3.30;0.68;;;;;;;13.35;36.86;99627.34;5125398;28;20044;-75
2021/03/31 10:57:27;;;;;;;0.63;0.63;;;;;;;13.72;36.97;99647.47;5109092;28;20074;-76
2021/03/31 10:59:53;;;;;;;1.40;1.35;;;;;;;14.12;36.06;99671.06;5108486;28;20024;-78
2021/03/31 11:02:18;;;;;;;0.95;0.95;;;;;;;13.99;37.19;99680.53;5094653;28;20028;-80
2021/03/31 11:04:44;;;;;;;1.55;0.85;;;;;;;13.60;36.26;99659.28;5095189;28;20548;-77
2021/03/31 11:07:10;;;;;;;0.85;0.85;;;;;;;13.50;36.93;99657.56;5094797;28;20024;-78
2021/03/31 11:09:39;;;;;;;1.08;0.98;;;;;;;13.67;36.96;99653.56;5094909;28;20028;-77
2021/03/31 11:12:14;;;;;;;1.67;1.10;;;;;;;14.04;37.24;99657.78;5112092;28;20120;-79
2021/03/31 11:14:39;;;;;;;2.17;1.98;;;;;;;13.79;36.51;99622.31;5095701;28;20032;-78
2021/03/31 11:17:09;;;;;;;1.58;1.45;;;;;;;13.70;37.28;99609.03;5095080;28;20032;-79
2021/03/31 11:20:00;;;;;;;2.05;1.50;;;;;;;14.10;36.02;99658.81;5095407;28;20059;-78
2021/03/31 11:27:54;;;;;;;1.25;1.15;;;;;;;14.09;36.06;99637.81;5096049;28;20035;-78
2021/03/31 11:30:19;;;;;;;2.10;1.15;;;;;;;13.44;37.83;99601.78;5095084;28;20024;-79
2021/03/31 11:32:45;;;;;;;0.55;0.55;;;;;;;13.88;36.26;99638.34;5111353;28;20380;-78
2021/03/31 11:35:11;;;;;;;1.55;1.30;;;;;;;14.14;37.71;99628.94;5094738;28;20122;-77
2021/03/31 11:37:37;;;;;;;3.22;0.90;;;;;;;13.89;35.53;99587.91;5094541;28;20089;-78
2021/03/31 11:40:03;;;;;;;8.95;2.80;;;;;;;13.95;36.09;99627.06;5094647;28;20028;-78
2021/03/31 11:42:29;;;;;;;1.15;1.00;;;;;;;13.53;37.03;99576.94;5095137;28;20028;-79
2021/03/31 11:44:54;;;;;;;0.85;0.85;;;;;;;13.50;35.29;99613.91;5094827;28;20024;-78
2021/03/31 11:47:20;;;;;;;0.95;0.90;;;;;;;13.21;35.74;99566.63;5094827;28;20031;-77
2021/03/31 11:49:45;;;;;;;0.40;0.40;;;;;;;13.36;35.98;99572.63;5094015;28;20044;-78
2021/03/31 11:52:11;;;;;;;1.95;1.27;;;;;;;13.75;36.54;99605.72;5094298;28;20066;-78
2021/03/31 11:54:36;;;;;;;17.70;3.10;;;;;;;13.59;36.00;99599.41;5094343;28;20161;-78
2021/03/31 11:57:02;;;;;;;1.27;1.27;;;;;;;13.64;36.78;99623.88;5095122;28;20024;-78
2021/03/31 11:59:28;;;;;;;0.77;0.77;;;;;;;13.15;35.35;99548.13;5094336;28;20031;-78
2021/03/31 12:01:53;;;;;;;1.05;1.00;;;;;;;13.19;35.17;99571.84;5111149;28;20024;-74
2021/03/31 12:04:19;;;;;;;2.05;1.90;;;;;;;13.38;36.12;99543.19;5097662;28;20031;-80
2021/03/31 12:06:44;;;;;;;0.98;0.88;;;;;;;13.70;35.63;99586.03;5099562;28;20020;-79
2021/03/31 12:09:11;;;;;;;0.70;0.70;;;;;;;13.86;35.74;99586.78;5093768;28;20030;-79
2021/03/31 12:11:37;;;;;;;1.70;1.58;;;;;;;13.48;36.00;99530.28;5093957;28;20036;-78
2021/03/31 12:14:03;;;;;;;0.68;0.68;;;;;;;13.73;37.29;99562.94;5092094;28;20028;-78
2021/03/31 12:16:28;;;;;;;0.50;0.43;;;;;;;13.50;35.88;99530.63;5093247;28;20038;-78
2021/03/31 12:18:54;;;;;;;0.82;0.82;;;;;;;13.72;37.50;99541.94;5093374;28;20032;-78
2021/03/31 12:21:19;;;;;;;2.40;1.50;;;;;;;13.81;35.76;99562.31;5093127;28;20020;-77
2021/03/31 12:23:45;;;;;;;8.38;2.47;;;;;;;13.55;37.45;99513.44;5093191;28;20543;-77
2021/03/31 12:26:10;;;;;;;1.60;1.27;;;;;;;13.86;36.48;99549.91;5093408;28;20054;-78